หน้าหลัก
METAR-TAF:

METAR-TAF

ท่าอากาศยาน :

แคนซัสซิตี, มิสซูรี, สหรัฐอเมริกา

ละติจูด: 39-17-50N, ลองจิจูด: 094-43-50W, ความสูง: 312 ม.

การสังเกตสภาพอากาศปัจจุบัน

รายงานได้ทำขึ้นเมื่อ 38 นาทีที่แล้ว ณ เวลา 00:53 UTC
ลม 3 นอตจากเหนือ
อุณหภูมิ 11°C
ความชื้น 54%
ความกดอากาศ 1023 hPa
ทัศนวิสัย: 16.1 กม.
มีเมฆมาก มืดครึ้มที่ความสูง 10000 ฟุต

METAR: KMCI 200053Z 36003KT 10SM OVC100 11/02 A3022 RMK AO2 SLP236 T01110022

เวลา: 20:31 (01:31 UTC)

การพยากรณ์

รายงานได้ทำขึ้นเมื่อ 1 ชั่วโมงและ 57 นาทีที่แล้ว ณ เวลา 23:34 UTC
การพยากรณ์มีผลตั้งแต่วันที่ 20 ณ เวลา 00 UTC จนถึงวันที่ 20 ณ เวลา 24 UTC
ลม 8 นอตจากเหนือ
ทัศนวิสัย: 10 กม.
มีเมฆกระจายเป็นบางส่วนที่ความสูง 12000 ฟุต

TAF: KMCI 192334Z 2000/2024 36008KT P6SM SCT120

สังเกตการณ์สภาพอากาศและพยากรณ์อากาศของสนามบินมากกว่า 4000 แห่ง (รายงาน METAR และ TAF).

สถานีที่ดูได้จะแสดงไว้ด้วยจุดสีเหลืองและสีแดงบนแผนที่.

เลื่อนเมาส์ไปเหนือจุดเพื่อดูชื่อสถานี.

แล้วคลิกเพื่อดูสังเกตการณ์และการพยากรณ์สภาพอากาศ.

ในการเปลี่ยนแผนที่: คลิกที่ปุ่มสีเขียวที่มีกากบาทสีดำเพื่อซูมเข้า; ที่ปุ่มสีเขียวที่มีขีดเพื่อซูมออก; หรือที่ลูกศรสีเขียวเพื่อไปยังแผนที่ที่อยู่ติดกัน.


METAR-TAF: